»·PEaware :: N416DC KHMT-KHND

N416DC :: KHMT-KHND

FLIGHT INFORMATION

Flight Status: Arrived
Operator: Privately registered:
United States
More flights under this callsign
Pilot: Dan C. (1996)
Aircraft: CESSNA 182 SKYLANE
(C182)
More flights by this aircraft type
Origin: KHMT Hemet-Ryan
United States
Destination: KHND Henderson
United States
More flights between these airports :: More routes between these airports
Route: ACINS V587 DAWNA V283 BOACH
File this flight plan on PilotEdge
Remarks: FSX;SE AS16
Altitude:
(Current/Filed)
9,500ft
Speed:
(Current/Filed)
150kts
Departed: 29-Apr-18 12:52 PM
Arrived: 29-Apr-18 02:00 PM
Distance/Time
Traveled:
163nm/1:08
Distance/Time
To Go:
Arrived

Flight Plot

Page will automatically refresh every two minutes.

Flight plan parsing failed; only flown route is shown


Map Options




Map Legend


Flown Route
Filed Route
Departure Airport
Arrival Airport
Navaid (VOR, NDB)
Fix

Horizontal Profiles

Position Reports

Time Latitude Longitude Heading Altitude Ground
Speed
29-Apr-18 12:50 34.003276 -117.079745 333 8202ft 96kts
29-Apr-18 12:51 34.028595 -117.092096 334 8753ft 101kts
29-Apr-18 12:52 34.054893 -117.104896 334 9268ft 102kts
29-Apr-18 12:53 34.082584 -117.117635 334 9556ft 117kts
29-Apr-18 12:54 34.115133 -117.132544 347 9552ft 133kts
29-Apr-18 12:55 34.153132 -117.129732 2 9548ft 137kts
29-Apr-18 12:56 34.190712 -117.124093 2 9546ft 136kts
29-Apr-18 12:57 34.228249 -117.118516 2 9544ft 136kts
29-Apr-18 12:58 34.265775 -117.111475 23 9538ft 140kts
29-Apr-18 12:59 34.293972 -117.077938 41 9541ft 142kts
29-Apr-18 13:00 34.322083 -117.043836 41 9520ft 144kts
29-Apr-18 13:01 34.350531 -117.009317 42 9503ft 143kts
29-Apr-18 13:02 34.378691 -116.975102 42 9500ft 147kts
29-Apr-18 13:03 34.408102 -116.939329 42 9496ft 149kts
29-Apr-18 13:04 34.437484 -116.903550 42 9488ft 147kts
29-Apr-18 13:05 34.466024 -116.868821 42 9479ft 147kts
29-Apr-18 13:06 34.495340 -116.833024 42 9459ft 147kts
29-Apr-18 13:07 34.524016 -116.798023 43 9442ft 151kts
29-Apr-18 13:08 34.554320 -116.760997 43 9420ft 151kts
29-Apr-18 13:09 34.583911 -116.724769 43 9400ft 154kts
29-Apr-18 13:10 34.614360 -116.687457 43 9387ft 152kts
29-Apr-18 13:11 34.644044 -116.651060 43 9372ft 154kts
29-Apr-18 13:12 34.674428 -116.613752 43 9363ft 152kts
29-Apr-18 13:13 34.704049 -116.577363 44 9359ft 154kts
29-Apr-18 13:14 34.734676 -116.539708 44 9358ft 155kts
29-Apr-18 13:15 34.765242 -116.502034 44 9357ft 156kts
29-Apr-18 13:16 34.795988 -116.464118 44 9358ft 157kts
29-Apr-18 13:17 34.826113 -116.424977 46 9358ft 157kts
29-Apr-18 13:18 34.856010 -116.385915 46 9371ft 156kts
29-Apr-18 13:19 34.885621 -116.347195 46 9436ft 155kts
29-Apr-18 13:20 34.914648 -116.309201 45 9618ft 147kts
29-Apr-18 13:21 34.943190 -116.271826 46 9616ft 156kts
29-Apr-18 13:22 34.973036 -116.232688 46 9617ft 157kts
29-Apr-18 13:23 35.002925 -116.193447 46 9544ft 154kts
29-Apr-18 13:24 35.031351 -116.156091 46 9519ft 147kts
29-Apr-18 13:25 35.059030 -116.119695 46 9515ft 147kts
29-Apr-18 13:26 35.086920 -116.082945 46 9517ft 147kts
29-Apr-18 13:27 35.114828 -116.046145 46 9519ft 152kts
29-Apr-18 13:28 35.144313 -116.007222 46 9518ft 156kts
29-Apr-18 13:29 35.173911 -115.968116 47 9506ft 150kts
29-Apr-18 13:30 35.201867 -115.931118 47 9508ft 153kts
29-Apr-18 13:31 35.231277 -115.892166 47 9503ft 150kts
29-Apr-18 13:32 35.259116 -115.855251 47 9500ft 151kts
29-Apr-18 13:33 35.288121 -115.816749 47 9496ft 151kts
29-Apr-18 13:34 35.316309 -115.779290 47 9488ft 148kts
29-Apr-18 13:35 35.344490 -115.741799 47 9489ft 154kts
29-Apr-18 13:36 35.374089 -115.702411 47 9488ft 156kts
29-Apr-18 13:37 35.403355 -115.663364 47 9481ft 154kts
29-Apr-18 13:38 35.432313 -115.624694 47 9477ft 155kts
29-Apr-18 13:39 35.461469 -115.585726 47 9471ft 148kts
29-Apr-18 13:40 35.488856 -115.549078 47 9469ft 144kts
29-Apr-18 13:41 35.516446 -115.512099 48 9262ft 157kts
29-Apr-18 13:42 35.546161 -115.472186 48 8782ft 158kts
29-Apr-18 13:43 35.575576 -115.432736 48 8285ft 156kts
29-Apr-18 13:44 35.605093 -115.393109 48 7784ft 156kts
29-Apr-18 13:45 35.634262 -115.353850 48 7271ft 152kts
29-Apr-18 13:46 35.662585 -115.315695 48 6773ft 153kts
29-Apr-18 13:47 35.696415 -115.284864 23 6259ft 148kts
29-Apr-18 13:49 35.733452 -115.264729 23 5753ft 142kts
29-Apr-18 13:50 35.769773 -115.245024 23 5244ft 142kts
29-Apr-18 13:51 35.806346 -115.225133 23 4747ft 144kts
29-Apr-18 13:52 35.841418 -115.206065 21 4601ft 136kts
29-Apr-18 13:52 35.870850 -115.190045 21 4601ft 141kts
29-Apr-18 13:53 35.907239 -115.170023 23 4403ft 146kts
29-Apr-18 13:54 35.942871 -115.154533 2 3847ft 116kts
29-Apr-18 13:55 35.973247 -115.150776 359 3639ft 109kts
29-Apr-18 13:56 36.002488 -115.147025 357 3311ft 103kts
29-Apr-18 13:57 36.002932 -115.131981 213 2814ft 66kts
29-Apr-18 13:58 35.984227 -115.135236 189 2602ft 73kts
29-Apr-18 14:00 35.971831 -115.135428 180 2495ft 12kts
29-Apr-18 14:00 35.970677 -115.136923 272 2495ft 7kts
29-Apr-18 14:01 35.972737 -115.137880 326 2495ft 3kts
29-Apr-18 14:02 35.972872 -115.137891 358 2495ft 0kts

Navigation Log

Ident Type
Flight plan parsing failed, navigation log unavailable